createdAt,value
2018-03-08T00:00:01.565Z,4.75
2018-03-08T00:05:02.576Z,4.79
2018-03-08T00:10:03.527Z,4.78
2018-03-08T00:15:04.484Z,4.74
2018-03-08T00:20:05.428Z,4.75
2018-03-08T00:25:06.352Z,4.74
2018-03-08T08:07:55.793Z,3.07
2018-03-08T08:12:56.738Z,2.58
2018-03-08T08:23:42.619Z,2.39
2018-03-08T08:28:43.565Z,2.93
2018-03-08T08:33:44.571Z,2.85
2018-03-08T08:38:45.512Z,2.35
2018-03-08T08:43:46.462Z,2.75
2018-03-08T08:48:47.410Z,2.57
2018-03-08T08:53:48.388Z,2.55
2018-03-08T08:58:49.310Z,2.62
2018-03-08T09:03:50.255Z,2.81
2018-03-08T09:08:51.222Z,2.72
2018-03-08T09:13:52.413Z,2.98
2018-03-08T09:18:53.357Z,2.83
2018-03-08T09:23:54.300Z,2.91
2018-03-08T09:28:55.244Z,3.01
2018-03-08T09:33:56.185Z,3.38
2018-03-08T09:38:57.127Z,3.79
2018-03-08T09:43:58.104Z,3.67
2018-03-08T09:48:59.043Z,4.36
2018-03-08T09:53:59.992Z,4.25
2018-03-08T09:59:00.943Z,4.39
2018-03-08T10:04:01.879Z,4.18
2018-03-08T10:09:02.854Z,4.48
2018-03-08T10:14:03.816Z,4.53
2018-03-08T10:19:04.769Z,4.08
2018-03-08T10:24:05.710Z,4.04
2018-03-08T10:29:06.660Z,4.21
2018-03-08T10:34:08.067Z,4.40
2018-03-08T10:44:10.594Z,4.65
2018-03-08T10:49:11.858Z,4.37
2018-03-08T10:54:12.797Z,4.62
2018-03-08T10:59:13.769Z,4.96
2018-03-08T11:04:14.748Z,4.52
2018-03-08T11:09:15.677Z,4.62
2018-03-08T11:14:16.653Z,4.84
2018-03-08T11:19:17.612Z,4.64
2018-03-08T11:24:18.543Z,4.43
2018-03-08T11:29:19.480Z,4.52
2018-03-08T11:34:20.437Z,4.35
2018-03-08T11:39:21.374Z,4.39
2018-03-08T11:44:22.357Z,4.59
2018-03-08T11:49:23.317Z,4.77
2018-03-08T11:54:24.267Z,4.52
2018-03-08T11:59:25.255Z,4.79
2018-03-08T12:04:26.219Z,4.81
2018-03-08T12:09:27.183Z,4.81
2018-03-08T12:14:28.208Z,4.84
2018-03-08T12:19:29.165Z,5.05
2018-03-08T12:24:30.133Z,5.09
2018-03-08T12:29:31.101Z,5.35
2018-03-08T12:34:32.066Z,5.61
2018-03-08T12:39:33.018Z,5.64
2018-03-08T12:44:33.979Z,5.80
2018-03-08T12:49:34.957Z,6.08
2018-03-08T12:54:35.892Z,6.43
2018-03-08T12:59:36.850Z,6.38
2018-03-08T13:04:37.876Z,6.56
2018-03-08T13:09:38.805Z,7.00
2018-03-08T13:14:39.792Z,8.57
2018-03-08T13:19:40.763Z,8.55
2018-03-08T13:24:41.712Z,8.68
2018-03-08T13:29:42.641Z,8.35
2018-03-08T13:34:43.623Z,9.04
2018-03-08T13:39:44.568Z,9.66
2018-03-08T13:44:45.510Z,10.77
2018-03-08T13:49:46.485Z,9.95
2018-03-08T13:54:47.441Z,10.87
2018-03-08T13:59:48.397Z,9.90
2018-03-08T14:04:49.321Z,11.05
2018-03-08T14:09:50.254Z,10.35
2018-03-08T14:14:51.220Z,10.01
2018-03-08T14:19:52.170Z,9.45
2018-03-08T14:24:53.116Z,9.62
2018-03-08T14:29:54.079Z,8.91
2018-03-08T14:34:55.070Z,9.09
2018-03-08T14:39:56.343Z,10.43
2018-03-08T14:44:57.302Z,9.84
2018-03-08T14:49:58.288Z,9.53
2018-03-08T14:54:59.296Z,8.94
2018-03-08T15:00:00.269Z,8.99
2018-03-08T15:05:01.489Z,10.29
2018-03-08T15:10:02.451Z,10.59
2018-03-08T15:15:03.467Z,11.56
2018-03-08T15:20:04.713Z,11.62
2018-03-08T15:25:05.666Z,10.04
2018-03-08T15:30:06.630Z,9.15
2018-03-08T15:35:07.601Z,8.66
2018-03-08T15:40:08.826Z,8.65
2018-03-08T15:45:09.745Z,8.97
2018-03-08T15:50:10.949Z,8.98
2018-03-08T15:55:11.918Z,8.72
2018-03-08T16:00:12.904Z,8.42
2018-03-08T16:05:13.857Z,8.82
2018-03-08T16:10:33.955Z,8.85
2018-03-08T16:15:34.952Z,8.64
2018-03-08T16:20:36.267Z,8.52
2018-03-08T16:25:37.276Z,8.59
2018-03-08T16:30:38.233Z,8.65
2018-03-08T16:35:39.655Z,8.51
2018-03-08T16:40:40.619Z,8.51
2018-03-08T16:45:42.652Z,8.01
2018-03-08T16:50:43.630Z,7.85
2018-03-08T16:55:44.576Z,7.92
2018-03-08T17:00:45.538Z,7.57
2018-03-08T17:05:46.510Z,7.27
2018-03-08T17:10:47.480Z,7.43
2018-03-08T17:15:48.511Z,6.84
2018-03-08T17:20:49.469Z,6.98
2018-03-08T17:25:50.450Z,6.63
2018-03-08T17:30:51.418Z,6.67
2018-03-08T17:35:52.378Z,6.66
2018-03-08T17:40:53.369Z,6.56
2018-03-08T17:45:54.363Z,6.50
2018-03-08T17:50:55.340Z,6.34
2018-03-08T17:55:56.332Z,6.33
2018-03-08T18:00:57.306Z,6.14
2018-03-08T18:05:58.244Z,5.98
2018-03-08T18:10:59.224Z,5.99
2018-03-08T18:16:00.242Z,5.93
2018-03-08T18:21:01.200Z,5.89
2018-03-08T18:26:02.168Z,5.83
2018-03-08T18:31:03.170Z,5.60
2018-03-08T18:36:04.130Z,5.71
2018-03-08T18:41:05.107Z,5.82
2018-03-08T18:46:06.056Z,5.65
2018-03-08T18:51:07.047Z,5.63
2018-03-08T18:56:08.040Z,5.65
2018-03-08T19:01:09.015Z,5.72
2018-03-08T19:06:10.015Z,5.61
2018-03-08T19:11:10.987Z,5.78
2018-03-08T19:16:12.001Z,5.62
2018-03-08T19:21:12.948Z,5.63
2018-03-08T19:26:14.023Z,5.69
2018-03-08T19:31:15.020Z,5.54
2018-03-08T19:36:16.024Z,5.63
2018-03-08T19:41:16.987Z,5.66
2018-03-08T19:46:17.973Z,5.54
2018-03-08T19:51:19.006Z,5.68
2018-03-08T19:56:20.013Z,5.57
2018-03-08T20:01:21.040Z,5.43
2018-03-08T20:06:22.484Z,5.51
2018-03-08T20:11:23.438Z,5.25
2018-03-08T20:16:24.461Z,5.36
2018-03-08T20:21:25.428Z,5.39
2018-03-08T20:26:26.448Z,5.52
2018-03-08T20:31:27.431Z,5.57
2018-03-08T20:36:28.445Z,5.44
2018-03-08T20:41:29.410Z,5.25
2018-03-08T20:52:05.457Z,5.50
2018-03-08T20:57:06.449Z,5.44
2018-03-08T21:02:07.750Z,5.67
2018-03-08T21:07:08.729Z,5.33
2018-03-08T21:12:09.728Z,5.08
2018-03-08T21:17:10.699Z,5.14
2018-03-08T21:22:11.698Z,5.27
2018-03-08T21:27:12.667Z,4.91
2018-03-08T21:37:21.236Z,4.71
2018-03-08T21:42:22.206Z,4.82
2018-03-08T21:47:23.166Z,4.77
2018-03-08T21:52:24.469Z,4.85
2018-03-08T21:57:25.452Z,4.80
2018-03-08T22:02:26.412Z,4.83
2018-03-08T22:07:27.374Z,4.69
2018-03-08T22:12:28.337Z,4.77
2018-03-08T22:17:29.314Z,4.70
2018-03-08T22:22:30.285Z,4.77
2018-03-08T22:27:31.234Z,4.74
2018-03-08T22:32:32.201Z,4.82
2018-03-08T22:37:33.188Z,4.71
2018-03-08T22:42:34.170Z,4.71
2018-03-08T22:47:35.120Z,4.62
2018-03-08T22:52:36.297Z,4.82
2018-03-08T22:57:37.306Z,4.77
2018-03-08T23:02:38.241Z,4.73
2018-03-08T23:07:39.193Z,4.82
2018-03-08T23:12:40.135Z,4.49
2018-03-08T23:17:41.074Z,4.55
2018-03-08T23:22:42.041Z,4.57
2018-03-08T23:27:42.967Z,4.56
2018-03-08T23:32:44.216Z,4.60
2018-03-08T23:37:45.176Z,4.58
2018-03-08T23:42:46.117Z,4.43
2018-03-08T23:47:47.093Z,4.77
2018-03-08T23:52:48.044Z,4.58
2018-03-08T23:57:49.038Z,4.65
